sensor_id;sensor_type;location;lat;lon;timestamp;P1;durP1;ratioP1;P2;durP2;ratioP2
17890;SDS011;9071;48.220;14.480;2022-09-03T00:02:03;6.83;;;4.13;;
17890;SDS011;9071;48.220;14.480;2022-09-03T00:07:11;5.80;;;4.37;;
17890;SDS011;9071;48.220;14.480;2022-09-03T00:12:21;8.43;;;4.60;;
17890;SDS011;9071;48.220;14.480;2022-09-03T00:17:29;7.13;;;4.13;;
17890;SDS011;9071;48.220;14.480;2022-09-03T00:22:37;5.33;;;4.10;;
17890;SDS011;9071;48.220;14.480;2022-09-03T00:27:44;9.97;;;4.90;;
17890;SDS011;9071;48.220;14.480;2022-09-03T00:32:55;6.83;;;4.43;;
17890;SDS011;9071;48.220;14.480;2022-09-03T00:37:59;4.83;;;4.00;;
17890;SDS011;9071;48.220;14.480;2022-09-03T00:43:04;6.37;;;4.60;;
17890;SDS011;9071;48.220;14.480;2022-09-03T00:48:19;6.50;;;4.60;;
17890;SDS011;9071;48.220;14.480;2022-09-03T00:53:27;4.97;;;4.30;;
17890;SDS011;9071;48.220;14.480;2022-09-03T01:04:18;6.40;;;4.37;;
17890;SDS011;9071;48.220;14.480;2022-09-03T01:09:31;4.80;;;3.97;;
17890;SDS011;9071;48.220;14.480;2022-09-03T01:14:45;6.67;;;4.00;;
17890;SDS011;9071;48.220;14.480;2022-09-03T01:20:01;6.97;;;4.20;;
17890;SDS011;9071;48.220;14.480;2022-09-03T01:25:21;4.70;;;4.30;;
17890;SDS011;9071;48.220;14.480;2022-09-03T01:30:32;10.07;;;4.00;;
17890;SDS011;9071;48.220;14.480;2022-09-03T01:35:42;6.80;;;4.07;;
17890;SDS011;9071;48.220;14.480;2022-09-03T01:40:49;4.53;;;3.70;;
17890;SDS011;9071;48.220;14.480;2022-09-03T01:45:59;5.33;;;4.30;;
17890;SDS011;9071;48.220;14.480;2022-09-03T01:51:07;5.30;;;4.37;;
17890;SDS011;9071;48.220;14.480;2022-09-03T01:56:16;4.47;;;4.07;;
17890;SDS011;9071;48.220;14.480;2022-09-03T02:01:31;4.73;;;4.30;;
17890;SDS011;9071;48.220;14.480;2022-09-03T02:06:37;4.80;;;4.30;;
17890;SDS011;9071;48.220;14.480;2022-09-03T02:11:39;5.63;;;4.30;;
17890;SDS011;9071;48.220;14.480;2022-09-03T02:16:43;5.33;;;4.83;;
17890;SDS011;9071;48.220;14.480;2022-09-03T02:21:46;7.20;;;4.77;;
17890;SDS011;9071;48.220;14.480;2022-09-03T02:26:52;6.43;;;4.43;;
17890;SDS011;9071;48.220;14.480;2022-09-03T02:31:56;6.80;;;4.60;;
17890;SDS011;9071;48.220;14.480;2022-09-03T02:36:58;5.27;;;4.07;;
17890;SDS011;9071;48.220;14.480;2022-09-03T02:42:00;5.63;;;3.97;;
17890;SDS011;9071;48.220;14.480;2022-09-03T02:47:05;8.90;;;5.10;;
17890;SDS011;9071;48.220;14.480;2022-09-03T02:52:08;5.37;;;4.60;;
17890;SDS011;9071;48.220;14.480;2022-09-03T02:57:12;5.47;;;4.57;;
17890;SDS011;9071;48.220;14.480;2022-09-03T03:02:17;8.53;;;4.83;;
17890;SDS011;9071;48.220;14.480;2022-09-03T03:07:20;9.17;;;5.27;;
17890;SDS011;9071;48.220;14.480;2022-09-03T03:12:22;7.00;;;4.80;;
17890;SDS011;9071;48.220;14.480;2022-09-03T03:17:25;7.53;;;5.37;;
17890;SDS011;9071;48.220;14.480;2022-09-03T03:22:27;8.80;;;5.70;;
17890;SDS011;9071;48.220;14.480;2022-09-03T03:27:29;6.30;;;5.03;;
17890;SDS011;9071;48.220;14.480;2022-09-03T03:32:33;7.83;;;6.03;;
17890;SDS011;9071;48.220;14.480;2022-09-03T03:37:35;6.27;;;4.97;;
17890;SDS011;9071;48.220;14.480;2022-09-03T03:42:37;8.73;;;6.00;;
17890;SDS011;9071;48.220;14.480;2022-09-03T03:47:41;7.23;;;5.73;;
17890;SDS011;9071;48.220;14.480;2022-09-03T03:52:45;9.07;;;6.00;;
17890;SDS011;9071;48.220;14.480;2022-09-03T03:57:48;7.47;;;5.83;;
17890;SDS011;9071;48.220;14.480;2022-09-03T04:02:51;7.27;;;5.70;;
17890;SDS011;9071;48.220;14.480;2022-09-03T04:07:53;7.53;;;5.90;;
17890;SDS011;9071;48.220;14.480;2022-09-03T04:12:55;8.73;;;6.37;;
17890;SDS011;9071;48.220;14.480;2022-09-03T04:17:58;8.73;;;6.63;;
17890;SDS011;9071;48.220;14.480;2022-09-03T04:23:01;7.93;;;6.33;;
17890;SDS011;9071;48.220;14.480;2022-09-03T04:28:03;7.67;;;5.90;;
17890;SDS011;9071;48.220;14.480;2022-09-03T04:33:06;9.33;;;6.30;;
17890;SDS011;9071;48.220;14.480;2022-09-03T04:38:09;7.17;;;6.30;;
17890;SDS011;9071;48.220;14.480;2022-09-03T04:43:11;9.00;;;6.60;;
17890;SDS011;9071;48.220;14.480;2022-09-03T04:48:14;8.23;;;6.47;;
17890;SDS011;9071;48.220;14.480;2022-09-03T04:53:16;11.00;;;6.43;;
17890;SDS011;9071;48.220;14.480;2022-09-03T04:58:18;8.70;;;7.27;;
17890;SDS011;9071;48.220;14.480;2022-09-03T05:03:22;7.83;;;6.23;;
17890;SDS011;9071;48.220;14.480;2022-09-03T05:08:24;11.17;;;7.40;;
17890;SDS011;9071;48.220;14.480;2022-09-03T05:13:26;9.13;;;7.37;;
17890;SDS011;9071;48.220;14.480;2022-09-03T05:18:30;9.77;;;7.50;;
17890;SDS011;9071;48.220;14.480;2022-09-03T05:23:34;7.83;;;7.03;;
17890;SDS011;9071;48.220;14.480;2022-09-03T05:28:37;10.53;;;5.83;;
17890;SDS011;9071;48.220;14.480;2022-09-03T05:33:43;6.77;;;5.87;;
17890;SDS011;9071;48.220;14.480;2022-09-03T05:38:46;7.50;;;3.57;;
17890;SDS011;9071;48.220;14.480;2022-09-03T05:43:48;4.60;;;3.53;;
17890;SDS011;9071;48.220;14.480;2022-09-03T05:48:55;3.57;;;2.50;;
17890;SDS011;9071;48.220;14.480;2022-09-03T05:53:57;2.97;;;2.10;;
17890;SDS011;9071;48.220;14.480;2022-09-03T05:59:02;7.57;;;2.35;;
17890;SDS011;9071;48.220;14.480;2022-09-03T06:04:08;2.75;;;2.00;;
17890;SDS011;9071;48.220;14.480;2022-09-03T06:09:12;4.40;;;2.30;;
17890;SDS011;9071;48.220;14.480;2022-09-03T06:14:17;4.68;;;2.20;;
17890;SDS011;9071;48.220;14.480;2022-09-03T06:19:20;4.00;;;1.88;;
17890;SDS011;9071;48.220;14.480;2022-09-03T06:24:22;3.15;;;2.08;;
17890;SDS011;9071;48.220;14.480;2022-09-03T06:29:26;4.03;;;2.00;;
17890;SDS011;9071;48.220;14.480;2022-09-03T06:34:29;3.75;;;2.42;;
17890;SDS011;9071;48.220;14.480;2022-09-03T06:39:31;3.92;;;2.60;;
17890;SDS011;9071;48.220;14.480;2022-09-03T06:44:33;3.45;;;2.00;;
17890;SDS011;9071;48.220;14.480;2022-09-03T06:49:37;2.10;;;1.90;;
17890;SDS011;9071;48.220;14.480;2022-09-03T06:54:39;2.55;;;1.77;;
17890;SDS011;9071;48.220;14.480;2022-09-03T06:59:41;3.40;;;2.17;;
17890;SDS011;9071;48.220;14.480;2022-09-03T07:04:45;4.68;;;2.33;;
17890;SDS011;9071;48.220;14.480;2022-09-03T07:09:49;1.85;;;1.65;;
17890;SDS011;9071;48.220;14.480;2022-09-03T07:14:51;3.80;;;2.30;;
17890;SDS011;9071;48.220;14.480;2022-09-03T07:19:54;4.68;;;2.10;;
17890;SDS011;9071;48.220;14.480;2022-09-03T07:24:57;4.40;;;2.35;;
17890;SDS011;9071;48.220;14.480;2022-09-03T07:29:59;3.30;;;2.00;;
17890;SDS011;9071;48.220;14.480;2022-09-03T07:35:04;4.25;;;2.20;;
17890;SDS011;9071;48.220;14.480;2022-09-03T07:40:07;3.92;;;2.00;;
17890;SDS011;9071;48.220;14.480;2022-09-03T07:45:09;4.20;;;2.10;;
17890;SDS011;9071;48.220;14.480;2022-09-03T07:50:14;2.42;;;2.20;;
17890;SDS011;9071;48.220;14.480;2022-09-03T07:55:16;4.38;;;2.03;;
17890;SDS011;9071;48.220;14.480;2022-09-03T08:00:19;3.63;;;2.13;;
17890;SDS011;9071;48.220;14.480;2022-09-03T08:05:22;4.88;;;2.30;;
17890;SDS011;9071;48.220;14.480;2022-09-03T08:10:24;3.80;;;2.22;;
17890;SDS011;9071;48.220;14.480;2022-09-03T08:15:29;4.47;;;2.35;;
17890;SDS011;9071;48.220;14.480;2022-09-03T08:20:34;3.50;;;2.20;;
17890;SDS011;9071;48.220;14.480;2022-09-03T08:25:38;3.60;;;2.50;;
17890;SDS011;9071;48.220;14.480;2022-09-03T08:30:41;2.30;;;2.10;;
17890;SDS011;9071;48.220;14.480;2022-09-03T08:35:52;4.25;;;2.38;;
17890;SDS011;9071;48.220;14.480;2022-09-03T08:41:01;2.90;;;2.60;;
17890;SDS011;9071;48.220;14.480;2022-09-03T08:46:04;3.80;;;2.78;;
17890;SDS011;9071;48.220;14.480;2022-09-03T08:51:08;3.75;;;2.90;;
17890;SDS011;9071;48.220;14.480;2022-09-03T08:56:13;5.15;;;2.88;;
17890;SDS011;9071;48.220;14.480;2022-09-03T09:01:25;3.92;;;2.78;;
17890;SDS011;9071;48.220;14.480;2022-09-03T09:06:34;3.47;;;2.83;;
17890;SDS011;9071;48.220;14.480;2022-09-03T09:11:49;5.50;;;2.95;;
17890;SDS011;9071;48.220;14.480;2022-09-03T09:17:01;7.50;;;3.47;;
17890;SDS011;9071;48.220;14.480;2022-09-03T09:22:19;3.75;;;2.70;;
17890;SDS011;9071;48.220;14.480;2022-09-03T09:27:25;3.85;;;2.85;;
17890;SDS011;9071;48.220;14.480;2022-09-03T09:32:29;4.00;;;2.28;;
17890;SDS011;9071;48.220;14.480;2022-09-03T09:37:45;4.07;;;2.67;;
17890;SDS011;9071;48.220;14.480;2022-09-03T09:42:47;4.82;;;2.75;;
17890;SDS011;9071;48.220;14.480;2022-09-03T09:47:52;3.00;;;2.63;;
17890;SDS011;9071;48.220;14.480;2022-09-03T09:53:01;4.75;;;2.78;;
17890;SDS011;9071;48.220;14.480;2022-09-03T09:58:13;5.60;;;2.80;;
17890;SDS011;9071;48.220;14.480;2022-09-03T10:03:18;3.30;;;2.58;;
17890;SDS011;9071;48.220;14.480;2022-09-03T10:08:22;3.53;;;3.10;;
17890;SDS011;9071;48.220;14.480;2022-09-03T10:13:25;6.95;;;2.95;;
17890;SDS011;9071;48.220;14.480;2022-09-03T10:18:35;3.50;;;2.42;;
17890;SDS011;9071;48.220;14.480;2022-09-03T10:23:46;5.90;;;2.75;;
17890;SDS011;9071;48.220;14.480;2022-09-03T10:28:52;5.55;;;2.67;;
17890;SDS011;9071;48.220;14.480;2022-09-03T10:33:59;3.97;;;2.95;;
17890;SDS011;9071;48.220;14.480;2022-09-03T10:39:09;4.43;;;2.42;;
17890;SDS011;9071;48.220;14.480;2022-09-03T10:44:29;4.65;;;2.53;;
17890;SDS011;9071;48.220;14.480;2022-09-03T10:49:45;3.45;;;2.50;;
17890;SDS011;9071;48.220;14.480;2022-09-03T10:55:06;4.28;;;2.60;;
17890;SDS011;9071;48.220;14.480;2022-09-03T11:00:19;3.70;;;2.50;;
17890;SDS011;9071;48.220;14.480;2022-09-03T11:05:21;3.13;;;2.30;;
17890;SDS011;9071;48.220;14.480;2022-09-03T11:10:30;5.13;;;2.30;;
17890;SDS011;9071;48.220;14.480;2022-09-03T11:15:33;2.35;;;2.08;;
17890;SDS011;9071;48.220;14.480;2022-09-03T11:20:40;2.80;;;2.20;;
17890;SDS011;9071;48.220;14.480;2022-09-03T11:25:45;2.45;;;1.98;;
17890;SDS011;9071;48.220;14.480;2022-09-03T11:30:55;2.90;;;2.30;;
17890;SDS011;9071;48.220;14.480;2022-09-03T11:36:25;3.42;;;2.00;;
17890;SDS011;9071;48.220;14.480;2022-09-03T11:41:33;2.40;;;2.10;;
17890;SDS011;9071;48.220;14.480;2022-09-03T11:46:38;2.63;;;2.33;;
17890;SDS011;9071;48.220;14.480;2022-09-03T11:51:41;6.05;;;2.10;;
17890;SDS011;9071;48.220;14.480;2022-09-03T11:56:45;3.08;;;1.90;;
17890;SDS011;9071;48.220;14.480;2022-09-03T12:01:50;5.00;;;2.20;;
17890;SDS011;9071;48.220;14.480;2022-09-03T12:06:56;5.30;;;2.13;;
17890;SDS011;9071;48.220;14.480;2022-09-03T12:12:26;3.45;;;2.28;;
17890;SDS011;9071;48.220;14.480;2022-09-03T12:17:43;2.78;;;2.22;;
17890;SDS011;9071;48.220;14.480;2022-09-03T12:23:13;2.63;;;1.90;;
17890;SDS011;9071;48.220;14.480;2022-09-03T12:28:28;4.60;;;2.20;;
17890;SDS011;9071;48.220;14.480;2022-09-03T12:33:32;3.50;;;2.20;;
17890;SDS011;9071;48.220;14.480;2022-09-03T12:38:35;4.32;;;2.40;;
17890;SDS011;9071;48.220;14.480;2022-09-03T12:43:38;3.72;;;2.03;;
17890;SDS011;9071;48.220;14.480;2022-09-03T12:48:45;5.85;;;2.25;;
17890;SDS011;9071;48.220;14.480;2022-09-03T12:53:52;6.32;;;2.40;;
17890;SDS011;9071;48.220;14.480;2022-09-03T12:58:57;5.65;;;2.30;;
17890;SDS011;9071;48.220;14.480;2022-09-03T13:04:03;3.55;;;2.60;;
17890;SDS011;9071;48.220;14.480;2022-09-03T13:09:09;3.28;;;2.22;;
17890;SDS011;9071;48.220;14.480;2022-09-03T13:14:13;4.10;;;1.92;;
17890;SDS011;9071;48.220;14.480;2022-09-03T13:19:18;2.92;;;2.13;;
17890;SDS011;9071;48.220;14.480;2022-09-03T13:30:02;3.40;;;2.00;;
17890;SDS011;9071;48.220;14.480;2022-09-03T13:35:08;3.05;;;2.00;;
17890;SDS011;9071;48.220;14.480;2022-09-03T13:40:31;2.60;;;1.80;;
17890;SDS011;9071;48.220;14.480;2022-09-03T13:45:39;5.90;;;1.75;;
17890;SDS011;9071;48.220;14.480;2022-09-03T13:50:47;2.25;;;2.00;;
17890;SDS011;9071;48.220;14.480;2022-09-03T13:55:53;4.90;;;2.25;;
17890;SDS011;9071;48.220;14.480;2022-09-03T14:01:05;2.20;;;1.90;;
17890;SDS011;9071;48.220;14.480;2022-09-03T14:06:17;5.22;;;2.00;;
17890;SDS011;9071;48.220;14.480;2022-09-03T14:11:26;4.22;;;1.77;;
17890;SDS011;9071;48.220;14.480;2022-09-03T14:16:36;4.47;;;2.20;;
17890;SDS011;9071;48.220;14.480;2022-09-03T14:21:43;4.70;;;2.17;;
17890;SDS011;9071;48.220;14.480;2022-09-03T14:26:52;4.57;;;2.17;;
17890;SDS011;9071;48.220;14.480;2022-09-03T14:32:09;2.85;;;2.03;;
17890;SDS011;9071;48.220;14.480;2022-09-03T14:37:33;4.68;;;2.03;;
17890;SDS011;9071;48.220;14.480;2022-09-03T14:42:55;5.93;;;2.22;;
17890;SDS011;9071;48.220;14.480;2022-09-03T14:48:14;4.68;;;2.10;;
17890;SDS011;9071;48.220;14.480;2022-09-03T14:59:02;2.13;;;1.90;;
17890;SDS011;9071;48.220;14.480;2022-09-03T15:04:42;2.63;;;2.13;;
17890;SDS011;9071;48.220;14.480;2022-09-03T15:09:53;2.45;;;2.00;;
17890;SDS011;9071;48.220;14.480;2022-09-03T15:15:04;2.88;;;1.88;;
17890;SDS011;9071;48.220;14.480;2022-09-03T15:20:20;1.95;;;1.85;;
17890;SDS011;9071;48.220;14.480;2022-09-03T15:25:30;5.30;;;2.15;;
17890;SDS011;9071;48.220;14.480;2022-09-03T15:30:42;3.47;;;1.73;;
17890;SDS011;9071;48.220;14.480;2022-09-03T15:41:32;3.20;;;1.60;;
17890;SDS011;9071;48.220;14.480;2022-09-03T15:46:46;2.20;;;2.00;;
17890;SDS011;9071;48.220;14.480;2022-09-03T15:52:01;2.47;;;2.00;;
17890;SDS011;9071;48.220;14.480;2022-09-03T15:57:11;5.10;;;2.10;;
17890;SDS011;9071;48.220;14.480;2022-09-03T16:02:19;2.92;;;2.10;;
17890;SDS011;9071;48.220;14.480;2022-09-03T16:07:31;3.42;;;2.22;;
17890;SDS011;9071;48.220;14.480;2022-09-03T16:12:51;3.05;;;1.70;;
17890;SDS011;9071;48.220;14.480;2022-09-03T16:18:03;2.22;;;1.67;;
17890;SDS011;9071;48.220;14.480;2022-09-03T16:23:12;3.10;;;1.85;;
17890;SDS011;9071;48.220;14.480;2022-09-03T16:28:23;2.85;;;1.80;;
17890;SDS011;9071;48.220;14.480;2022-09-03T16:33:31;2.30;;;2.10;;
17890;SDS011;9071;48.220;14.480;2022-09-03T16:38:41;2.50;;;2.10;;
17890;SDS011;9071;48.220;14.480;2022-09-03T16:43:55;6.25;;;2.50;;
17890;SDS011;9071;48.220;14.480;2022-09-03T16:49:09;4.43;;;2.63;;
17890;SDS011;9071;48.220;14.480;2022-09-03T16:54:29;5.03;;;3.00;;
17890;SDS011;9071;48.220;14.480;2022-09-03T16:59:51;4.05;;;2.60;;
17890;SDS011;9071;48.220;14.480;2022-09-03T17:05:08;3.97;;;2.50;;
17890;SDS011;9071;48.220;14.480;2022-09-03T17:10:23;4.82;;;2.85;;
17890;SDS011;9071;48.220;14.480;2022-09-03T17:15:33;4.63;;;3.08;;
17890;SDS011;9071;48.220;14.480;2022-09-03T17:20:44;3.85;;;2.88;;
17890;SDS011;9071;48.220;14.480;2022-09-03T17:25:53;4.00;;;3.33;;
17890;SDS011;9071;48.220;14.480;2022-09-03T17:31:04;5.05;;;3.65;;
17890;SDS011;9071;48.220;14.480;2022-09-03T17:36:15;4.18;;;3.20;;
17890;SDS011;9071;48.220;14.480;2022-09-03T17:41:22;9.95;;;3.97;;
17890;SDS011;9071;48.220;14.480;2022-09-03T17:46:38;21.63;;;4.22;;
17890;SDS011;9071;48.220;14.480;2022-09-03T17:51:48;15.48;;;4.00;;
17890;SDS011;9071;48.220;14.480;2022-09-03T17:57:01;15.85;;;4.65;;
17890;SDS011;9071;48.220;14.480;2022-09-03T18:02:19;17.42;;;5.72;;
17890;SDS011;9071;48.220;14.480;2022-09-03T18:07:28;8.82;;;4.38;;
17890;SDS011;9071;48.220;14.480;2022-09-03T18:12:36;10.82;;;4.18;;
17890;SDS011;9071;48.220;14.480;2022-09-03T18:17:44;8.45;;;3.92;;
17890;SDS011;9071;48.220;14.480;2022-09-03T18:22:52;6.10;;;3.78;;
17890;SDS011;9071;48.220;14.480;2022-09-03T18:28:19;6.05;;;4.22;;
17890;SDS011;9071;48.220;14.480;2022-09-03T18:33:47;7.35;;;4.00;;
17890;SDS011;9071;48.220;14.480;2022-09-03T18:39:08;6.18;;;4.63;;
17890;SDS011;9071;48.220;14.480;2022-09-03T18:44:37;6.22;;;4.55;;
17890;SDS011;9071;48.220;14.480;2022-09-03T18:50:08;7.07;;;5.38;;
17890;SDS011;9071;48.220;14.480;2022-09-03T18:55:37;7.93;;;6.07;;
17890;SDS011;9071;48.220;14.480;2022-09-03T19:01:07;6.88;;;6.03;;
17890;SDS011;9071;48.220;14.480;2022-09-03T19:06:46;7.78;;;6.45;;
17890;SDS011;9071;48.220;14.480;2022-09-03T19:12:16;9.75;;;7.15;;
17890;SDS011;9071;48.220;14.480;2022-09-03T19:18:02;19.30;;;8.10;;
17890;SDS011;9071;48.220;14.480;2022-09-03T19:23:32;7.75;;;5.82;;
17890;SDS011;9071;48.220;14.480;2022-09-03T19:28:53;6.10;;;5.47;;
17890;SDS011;9071;48.220;14.480;2022-09-03T19:34:34;6.65;;;6.05;;
17890;SDS011;9071;48.220;14.480;2022-09-03T19:40:26;6.93;;;5.60;;
17890;SDS011;9071;48.220;14.480;2022-09-03T19:46:11;8.00;;;6.07;;
17890;SDS011;9071;48.220;14.480;2022-09-03T19:51:38;10.30;;;8.48;;
17890;SDS011;9071;48.220;14.480;2022-09-03T19:57:04;12.65;;;9.80;;
17890;SDS011;9071;48.220;14.480;2022-09-03T20:02:24;12.27;;;10.32;;
17890;SDS011;9071;48.220;14.480;2022-09-03T20:07:45;12.82;;;9.27;;
17890;SDS011;9071;48.220;14.480;2022-09-03T20:13:08;10.93;;;9.27;;
17890;SDS011;9071;48.220;14.480;2022-09-03T20:18:14;13.00;;;10.43;;
17890;SDS011;9071;48.220;14.480;2022-09-03T20:23:29;12.95;;;10.50;;
17890;SDS011;9071;48.220;14.480;2022-09-03T20:28:45;11.93;;;10.63;;
17890;SDS011;9071;48.220;14.480;2022-09-03T20:34:03;13.43;;;10.90;;
17890;SDS011;9071;48.220;14.480;2022-09-03T20:39:23;12.15;;;10.55;;
17890;SDS011;9071;48.220;14.480;2022-09-03T20:44:39;13.30;;;10.82;;
17890;SDS011;9071;48.220;14.480;2022-09-03T20:49:52;11.55;;;9.85;;
17890;SDS011;9071;48.220;14.480;2022-09-03T20:55:06;9.85;;;8.23;;
17890;SDS011;9071;48.220;14.480;2022-09-03T21:00:13;10.07;;;8.70;;
17890;SDS011;9071;48.220;14.480;2022-09-03T21:05:18;8.98;;;7.72;;
17890;SDS011;9071;48.220;14.480;2022-09-03T21:10:30;8.82;;;7.50;;
17890;SDS011;9071;48.220;14.480;2022-09-03T21:15:37;10.10;;;8.27;;
17890;SDS011;9071;48.220;14.480;2022-09-03T21:20:55;14.80;;;9.98;;
17890;SDS011;9071;48.220;14.480;2022-09-03T21:26:12;10.88;;;9.52;;
17890;SDS011;9071;48.220;14.480;2022-09-03T21:31:21;12.45;;;11.13;;
17890;SDS011;9071;48.220;14.480;2022-09-03T21:36:29;11.52;;;10.32;;
17890;SDS011;9071;48.220;14.480;2022-09-03T21:41:37;12.25;;;10.98;;
17890;SDS011;9071;48.220;14.480;2022-09-03T21:46:46;11.38;;;10.27;;
17890;SDS011;9071;48.220;14.480;2022-09-03T21:51:56;11.45;;;9.35;;
17890;SDS011;9071;48.220;14.480;2022-09-03T21:57:08;11.05;;;9.95;;
17890;SDS011;9071;48.220;14.480;2022-09-03T22:02:21;10.93;;;9.82;;
17890;SDS011;9071;48.220;14.480;2022-09-03T22:07:26;11.13;;;9.93;;
17890;SDS011;9071;48.220;14.480;2022-09-03T22:12:41;13.27;;;10.55;;
17890;SDS011;9071;48.220;14.480;2022-09-03T22:17:53;14.15;;;10.32;;
17890;SDS011;9071;48.220;14.480;2022-09-03T22:23:02;14.38;;;11.88;;
17890;SDS011;9071;48.220;14.480;2022-09-03T22:28:13;14.18;;;12.38;;
17890;SDS011;9071;48.220;14.480;2022-09-03T22:33:22;13.60;;;11.57;;
17890;SDS011;9071;48.220;14.480;2022-09-03T22:38:36;18.15;;;13.75;;
17890;SDS011;9071;48.220;14.480;2022-09-03T22:43:57;17.90;;;13.70;;
17890;SDS011;9071;48.220;14.480;2022-09-03T22:49:15;22.42;;;15.88;;
17890;SDS011;9071;48.220;14.480;2022-09-03T22:54:32;21.75;;;17.90;;
17890;SDS011;9071;48.220;14.480;2022-09-03T22:59:50;22.75;;;16.80;;
17890;SDS011;9071;48.220;14.480;2022-09-03T23:05:02;23.40;;;18.50;;
17890;SDS011;9071;48.220;14.480;2022-09-03T23:10:08;27.95;;;23.15;;
17890;SDS011;9071;48.220;14.480;2022-09-03T23:15:16;33.22;;;25.48;;
17890;SDS011;9071;48.220;14.480;2022-09-03T23:20:22;30.60;;;23.90;;
17890;SDS011;9071;48.220;14.480;2022-09-03T23:25:27;29.25;;;22.35;;
17890;SDS011;9071;48.220;14.480;2022-09-03T23:30:33;31.80;;;24.33;;
17890;SDS011;9071;48.220;14.480;2022-09-03T23:35:38;31.30;;;25.20;;
17890;SDS011;9071;48.220;14.480;2022-09-03T23:40:49;32.00;;;24.42;;
17890;SDS011;9071;48.220;14.480;2022-09-03T23:45:54;33.03;;;23.50;;
17890;SDS011;9071;48.220;14.480;2022-09-03T23:51:04;24.88;;;20.83;;
17890;SDS011;9071;48.220;14.480;2022-09-03T23:56:26;29.92;;;23.75;;
